sensor_id;sensor_type;location;lat;lon;timestamp;P1;durP1;ratioP1;P2;durP2;ratioP2
49962;SDS011;36180;57.678;11.910;2022-09-13T00:01:02;17.27;;;9.05;;
49962;SDS011;36180;57.678;11.910;2022-09-13T00:03:29;20.17;;;8.95;;
49962;SDS011;36180;57.678;11.910;2022-09-13T00:05:56;16.88;;;8.65;;
49962;SDS011;36180;57.678;11.910;2022-09-13T00:08:25;19.45;;;9.35;;
49962;SDS011;36180;57.678;11.910;2022-09-13T00:10:52;18.55;;;10.10;;
49962;SDS011;36180;57.678;11.910;2022-09-13T00:13:19;19.05;;;9.40;;
49962;SDS011;36180;57.678;11.910;2022-09-13T00:15:46;17.85;;;9.18;;
49962;SDS011;36180;57.678;11.910;2022-09-13T00:18:15;24.98;;;9.93;;
49962;SDS011;36180;57.678;11.910;2022-09-13T00:20:42;17.83;;;10.02;;
49962;SDS011;36180;57.678;11.910;2022-09-13T00:23:09;18.58;;;9.38;;
49962;SDS011;36180;57.678;11.910;2022-09-13T00:25:39;21.15;;;10.30;;
49962;SDS011;36180;57.678;11.910;2022-09-13T00:28:06;19.50;;;9.70;;
49962;SDS011;36180;57.678;11.910;2022-09-13T00:30:33;17.92;;;10.20;;
49962;SDS011;36180;57.678;11.910;2022-09-13T00:33:00;21.30;;;10.68;;
49962;SDS011;36180;57.678;11.910;2022-09-13T00:35:28;23.48;;;10.52;;
49962;SDS011;36180;57.678;11.910;2022-09-13T00:37:57;29.00;;;10.75;;
49962;SDS011;36180;57.678;11.910;2022-09-13T00:40:25;26.13;;;11.45;;
49962;SDS011;36180;57.678;11.910;2022-09-13T00:42:55;22.58;;;11.02;;
49962;SDS011;36180;57.678;11.910;2022-09-13T00:45:22;30.40;;;11.75;;
49962;SDS011;36180;57.678;11.910;2022-09-13T00:47:50;20.80;;;11.27;;
49962;SDS011;36180;57.678;11.910;2022-09-13T00:50:20;23.23;;;10.50;;
49962;SDS011;36180;57.678;11.910;2022-09-13T00:52:50;31.02;;;10.82;;
49962;SDS011;36180;57.678;11.910;2022-09-13T00:55:19;28.95;;;11.07;;
49962;SDS011;36180;57.678;11.910;2022-09-13T00:57:48;34.47;;;11.23;;
49962;SDS011;36180;57.678;11.910;2022-09-13T01:00:17;31.08;;;10.75;;
49962;SDS011;36180;57.678;11.910;2022-09-13T01:02:45;27.52;;;11.25;;
49962;SDS011;36180;57.678;11.910;2022-09-13T01:05:14;36.63;;;12.10;;
49962;SDS011;36180;57.678;11.910;2022-09-13T01:07:44;26.65;;;11.07;;
49962;SDS011;36180;57.678;11.910;2022-09-13T01:10:11;32.90;;;11.95;;
49962;SDS011;36180;57.678;11.910;2022-09-13T01:12:40;35.78;;;12.10;;
49962;SDS011;36180;57.678;11.910;2022-09-13T01:15:10;31.48;;;11.43;;
49962;SDS011;36180;57.678;11.910;2022-09-13T01:17:38;38.05;;;12.98;;
49962;SDS011;36180;57.678;11.910;2022-09-13T01:20:06;26.40;;;12.73;;
49962;SDS011;36180;57.678;11.910;2022-09-13T01:25:36;26.95;;;12.25;;
49962;SDS011;36180;57.678;11.910;2022-09-13T01:28:25;26.05;;;11.68;;
49962;SDS011;36180;57.678;11.910;2022-09-13T01:31:12;26.33;;;11.00;;
49962;SDS011;36180;57.678;11.910;2022-09-13T01:33:45;40.58;;;11.50;;
49962;SDS011;36180;57.678;11.910;2022-09-13T01:36:28;39.40;;;12.02;;
49962;SDS011;36180;57.678;11.910;2022-09-13T01:39:04;48.90;;;12.88;;
49962;SDS011;36180;57.678;11.910;2022-09-13T01:41:36;33.70;;;11.48;;
49962;SDS011;36180;57.678;11.910;2022-09-13T01:44:26;43.30;;;12.75;;
49962;SDS011;36180;57.678;11.910;2022-09-13T01:47:01;18.70;;;3.63;;
49962;SDS011;36180;57.678;11.910;2022-09-13T01:49:30;21.90;;;3.17;;
49962;SDS011;36180;57.678;11.910;2022-09-13T01:52:01;27.17;;;3.25;;
49962;SDS011;36180;57.678;11.910;2022-09-13T01:54:32;20.67;;;4.05;;
49962;SDS011;36180;57.678;11.910;2022-09-13T01:57:04;20.90;;;4.63;;
49962;SDS011;36180;57.678;11.910;2022-09-13T01:59:36;20.40;;;5.03;;
49962;SDS011;36180;57.678;11.910;2022-09-13T02:02:07;21.40;;;5.47;;
49962;SDS011;36180;57.678;11.910;2022-09-13T02:04:37;23.13;;;6.18;;
49962;SDS011;36180;57.678;11.910;2022-09-13T02:07:06;29.75;;;6.07;;
49962;SDS011;36180;57.678;11.910;2022-09-13T02:09:38;18.73;;;5.38;;
49962;SDS011;36180;57.678;11.910;2022-09-13T02:12:09;19.10;;;3.53;;
49962;SDS011;36180;57.678;11.910;2022-09-13T02:17:08;17.63;;;3.42;;
49962;SDS011;36180;57.678;11.910;2022-09-13T02:19:38;18.23;;;3.38;;
49962;SDS011;36180;57.678;11.910;2022-09-13T02:22:07;16.38;;;4.10;;
49962;SDS011;36180;57.678;11.910;2022-09-13T02:24:37;24.50;;;4.95;;
49962;SDS011;36180;57.678;11.910;2022-09-13T02:27:07;29.55;;;6.05;;
49962;SDS011;36180;57.678;11.910;2022-09-13T02:29:35;25.48;;;5.80;;
49962;SDS011;36180;57.678;11.910;2022-09-13T02:32:05;26.65;;;6.60;;
49962;SDS011;36180;57.678;11.910;2022-09-13T02:34:38;29.25;;;5.90;;
49962;SDS011;36180;57.678;11.910;2022-09-13T02:37:07;31.50;;;5.28;;
49962;SDS011;36180;57.678;11.910;2022-09-13T02:39:35;22.30;;;4.65;;
49962;SDS011;36180;57.678;11.910;2022-09-13T02:42:05;23.08;;;4.43;;
49962;SDS011;36180;57.678;11.910;2022-09-13T02:44:34;22.55;;;4.57;;
49962;SDS011;36180;57.678;11.910;2022-09-13T02:47:05;18.05;;;4.65;;
49962;SDS011;36180;57.678;11.910;2022-09-13T02:49:41;17.25;;;4.00;;
49962;SDS011;36180;57.678;11.910;2022-09-13T02:52:18;19.60;;;4.20;;
49962;SDS011;36180;57.678;11.910;2022-09-13T02:54:48;21.80;;;4.83;;
49962;SDS011;36180;57.678;11.910;2022-09-13T02:57:20;21.30;;;4.45;;
49962;SDS011;36180;57.678;11.910;2022-09-13T02:59:52;21.90;;;4.95;;
49962;SDS011;36180;57.678;11.910;2022-09-13T03:02:20;28.10;;;5.13;;
49962;SDS011;36180;57.678;11.910;2022-09-13T03:04:50;27.17;;;5.80;;
49962;SDS011;36180;57.678;11.910;2022-09-13T03:07:17;23.63;;;4.95;;
49962;SDS011;36180;57.678;11.910;2022-09-13T03:09:45;21.13;;;4.55;;
49962;SDS011;36180;57.678;11.910;2022-09-13T03:12:29;21.58;;;4.55;;
49962;SDS011;36180;57.678;11.910;2022-09-13T03:15:07;17.98;;;3.70;;
49962;SDS011;36180;57.678;11.910;2022-09-13T03:17:44;22.02;;;3.22;;
49962;SDS011;36180;57.678;11.910;2022-09-13T03:20:15;20.58;;;3.60;;
49962;SDS011;36180;57.678;11.910;2022-09-13T03:22:50;17.45;;;3.05;;
49962;SDS011;36180;57.678;11.910;2022-09-13T03:25:27;17.08;;;3.42;;
49962;SDS011;36180;57.678;11.910;2022-09-13T03:28:01;16.00;;;2.78;;
49962;SDS011;36180;57.678;11.910;2022-09-13T03:30:33;13.40;;;2.83;;
49962;SDS011;36180;57.678;11.910;2022-09-13T03:33:03;8.88;;;2.28;;
49962;SDS011;36180;57.678;11.910;2022-09-13T03:35:36;10.95;;;2.72;;
49962;SDS011;36180;57.678;11.910;2022-09-13T03:38:05;9.10;;;1.85;;
49962;SDS011;36180;57.678;11.910;2022-09-13T03:40:35;11.65;;;2.30;;
49962;SDS011;36180;57.678;11.910;2022-09-13T03:43:07;10.80;;;2.20;;
49962;SDS011;36180;57.678;11.910;2022-09-13T03:45:38;11.05;;;2.30;;
49962;SDS011;36180;57.678;11.910;2022-09-13T03:48:09;13.93;;;2.17;;
49962;SDS011;36180;57.678;11.910;2022-09-13T03:50:37;14.98;;;2.28;;
49962;SDS011;36180;57.678;11.910;2022-09-13T03:53:05;8.43;;;2.10;;
49962;SDS011;36180;57.678;11.910;2022-09-13T03:55:36;8.63;;;2.60;;
49962;SDS011;36180;57.678;11.910;2022-09-13T03:58:05;12.43;;;2.20;;
49962;SDS011;36180;57.678;11.910;2022-09-13T04:00:32;10.10;;;2.25;;
49962;SDS011;36180;57.678;11.910;2022-09-13T04:02:59;8.65;;;1.80;;
49962;SDS011;36180;57.678;11.910;2022-09-13T04:05:27;8.10;;;1.55;;
49962;SDS011;36180;57.678;11.910;2022-09-13T04:07:54;8.02;;;1.33;;
49962;SDS011;36180;57.678;11.910;2022-09-13T04:10:21;4.47;;;1.50;;
49962;SDS011;36180;57.678;11.910;2022-09-13T04:12:49;6.00;;;1.45;;
49962;SDS011;36180;57.678;11.910;2022-09-13T04:15:16;8.07;;;1.60;;
49962;SDS011;36180;57.678;11.910;2022-09-13T04:17:43;7.82;;;1.70;;
49962;SDS011;36180;57.678;11.910;2022-09-13T04:20:10;7.95;;;1.80;;
49962;SDS011;36180;57.678;11.910;2022-09-13T04:22:38;6.20;;;1.40;;
49962;SDS011;36180;57.678;11.910;2022-09-13T04:25:05;5.00;;;1.30;;
49962;SDS011;36180;57.678;11.910;2022-09-13T04:27:33;4.65;;;1.60;;
49962;SDS011;36180;57.678;11.910;2022-09-13T04:30:00;6.13;;;1.40;;
49962;SDS011;36180;57.678;11.910;2022-09-13T04:32:27;3.53;;;1.50;;
49962;SDS011;36180;57.678;11.910;2022-09-13T04:34:54;7.22;;;1.65;;
49962;SDS011;36180;57.678;11.910;2022-09-13T04:37:21;5.25;;;1.40;;
49962;SDS011;36180;57.678;11.910;2022-09-13T04:39:50;4.07;;;1.85;;
49962;SDS011;36180;57.678;11.910;2022-09-13T04:42:17;8.07;;;2.00;;
49962;SDS011;36180;57.678;11.910;2022-09-13T04:44:44;4.70;;;1.40;;
49962;SDS011;36180;57.678;11.910;2022-09-13T04:47:14;6.55;;;1.50;;
49962;SDS011;36180;57.678;11.910;2022-09-13T04:49:40;2.95;;;1.33;;
49962;SDS011;36180;57.678;11.910;2022-09-13T04:52:07;6.97;;;1.70;;
49962;SDS011;36180;57.678;11.910;2022-09-13T04:54:34;8.63;;;2.13;;
49962;SDS011;36180;57.678;11.910;2022-09-13T04:57:03;5.53;;;1.92;;
49962;SDS011;36180;57.678;11.910;2022-09-13T04:59:30;8.75;;;2.40;;
49962;SDS011;36180;57.678;11.910;2022-09-13T05:01:58;5.00;;;1.83;;
49962;SDS011;36180;57.678;11.910;2022-09-13T05:04:25;7.68;;;2.10;;
49962;SDS011;36180;57.678;11.910;2022-09-13T05:06:52;8.35;;;1.80;;
49962;SDS011;36180;57.678;11.910;2022-09-13T05:09:19;6.50;;;1.70;;
49962;SDS011;36180;57.678;11.910;2022-09-13T05:11:46;4.60;;;1.20;;
49962;SDS011;36180;57.678;11.910;2022-09-13T05:14:14;5.03;;;1.23;;
49962;SDS011;36180;57.678;11.910;2022-09-13T05:16:41;6.75;;;1.02;;
49962;SDS011;36180;57.678;11.910;2022-09-13T05:19:08;5.53;;;1.20;;
49962;SDS011;36180;57.678;11.910;2022-09-13T05:21:36;4.80;;;1.25;;
49962;SDS011;36180;57.678;11.910;2022-09-13T05:24:03;7.50;;;1.92;;
49962;SDS011;36180;57.678;11.910;2022-09-13T05:26:30;5.88;;;1.52;;
49962;SDS011;36180;57.678;11.910;2022-09-13T05:28:57;6.05;;;2.20;;
49962;SDS011;36180;57.678;11.910;2022-09-13T05:31:27;7.32;;;1.75;;
49962;SDS011;36180;57.678;11.910;2022-09-13T05:33:55;6.28;;;1.63;;
49962;SDS011;36180;57.678;11.910;2022-09-13T05:36:24;7.80;;;2.28;;
49962;SDS011;36180;57.678;11.910;2022-09-13T05:38:51;3.95;;;1.27;;
49962;SDS011;36180;57.678;11.910;2022-09-13T05:41:19;9.60;;;1.95;;
49962;SDS011;36180;57.678;11.910;2022-09-13T05:43:46;5.78;;;1.30;;
49962;SDS011;36180;57.678;11.910;2022-09-13T05:46:14;5.90;;;1.35;;
49962;SDS011;36180;57.678;11.910;2022-09-13T05:48:43;9.00;;;1.58;;
49962;SDS011;36180;57.678;11.910;2022-09-13T05:51:11;9.48;;;1.85;;
49962;SDS011;36180;57.678;11.910;2022-09-13T05:53:39;10.02;;;1.63;;
49962;SDS011;36180;57.678;11.910;2022-09-13T05:56:08;6.25;;;1.35;;
49962;SDS011;36180;57.678;11.910;2022-09-13T05:58:37;10.15;;;1.77;;
49962;SDS011;36180;57.678;11.910;2022-09-13T06:01:05;8.85;;;1.60;;
49962;SDS011;36180;57.678;11.910;2022-09-13T06:03:32;7.05;;;1.40;;
49962;SDS011;36180;57.678;11.910;2022-09-13T06:06:01;7.95;;;1.45;;
49962;SDS011;36180;57.678;11.910;2022-09-13T06:08:29;12.85;;;1.48;;
49962;SDS011;36180;57.678;11.910;2022-09-13T06:10:58;7.70;;;1.52;;
49962;SDS011;36180;57.678;11.910;2022-09-13T06:13:26;9.93;;;1.73;;
49962;SDS011;36180;57.678;11.910;2022-09-13T06:15:54;9.00;;;1.35;;
49962;SDS011;36180;57.678;11.910;2022-09-13T06:18:21;10.07;;;1.40;;
49962;SDS011;36180;57.678;11.910;2022-09-13T06:20:48;5.43;;;1.50;;
49962;SDS011;36180;57.678;11.910;2022-09-13T06:23:17;9.10;;;1.48;;
49962;SDS011;36180;57.678;11.910;2022-09-13T06:25:44;9.02;;;1.73;;
49962;SDS011;36180;57.678;11.910;2022-09-13T06:28:12;14.50;;;1.88;;
49962;SDS011;36180;57.678;11.910;2022-09-13T06:30:39;5.32;;;1.40;;
49962;SDS011;36180;57.678;11.910;2022-09-13T06:33:06;5.30;;;1.27;;
49962;SDS011;36180;57.678;11.910;2022-09-13T06:35:33;7.70;;;1.42;;
49962;SDS011;36180;57.678;11.910;2022-09-13T06:38:00;8.50;;;1.35;;
49962;SDS011;36180;57.678;11.910;2022-09-13T06:40:28;8.70;;;1.10;;
49962;SDS011;36180;57.678;11.910;2022-09-13T06:42:56;9.70;;;1.33;;
49962;SDS011;36180;57.678;11.910;2022-09-13T06:45:23;8.05;;;1.73;;
49962;SDS011;36180;57.678;11.910;2022-09-13T06:47:52;10.85;;;1.40;;
49962;SDS011;36180;57.678;11.910;2022-09-13T06:50:20;9.07;;;1.63;;
49962;SDS011;36180;57.678;11.910;2022-09-13T06:52:47;9.75;;;1.67;;
49962;SDS011;36180;57.678;11.910;2022-09-13T06:55:14;9.23;;;1.52;;
49962;SDS011;36180;57.678;11.910;2022-09-13T06:57:42;10.73;;;1.73;;
49962;SDS011;36180;57.678;11.910;2022-09-13T07:00:09;9.63;;;1.90;;
49962;SDS011;36180;57.678;11.910;2022-09-13T07:02:37;8.15;;;1.15;;
49962;SDS011;36180;57.678;11.910;2022-09-13T07:05:04;9.95;;;1.83;;
49962;SDS011;36180;57.678;11.910;2022-09-13T07:07:32;9.00;;;1.35;;
49962;SDS011;36180;57.678;11.910;2022-09-13T07:09:59;14.35;;;2.05;;
49962;SDS011;36180;57.678;11.910;2022-09-13T07:12:26;8.40;;;1.80;;
49962;SDS011;36180;57.678;11.910;2022-09-13T07:14:54;11.73;;;2.17;;
49962;SDS011;36180;57.678;11.910;2022-09-13T07:17:21;9.63;;;1.45;;
49962;SDS011;36180;57.678;11.910;2022-09-13T07:19:48;8.98;;;1.15;;
49962;SDS011;36180;57.678;11.910;2022-09-13T07:22:15;10.10;;;1.77;;
49962;SDS011;36180;57.678;11.910;2022-09-13T07:24:42;7.60;;;1.75;;
49962;SDS011;36180;57.678;11.910;2022-09-13T07:27:09;8.38;;;1.30;;
49962;SDS011;36180;57.678;11.910;2022-09-13T07:29:37;15.55;;;1.48;;
49962;SDS011;36180;57.678;11.910;2022-09-13T07:32:05;9.48;;;1.60;;
49962;SDS011;36180;57.678;11.910;2022-09-13T07:34:32;6.55;;;1.20;;
49962;SDS011;36180;57.678;11.910;2022-09-13T07:36:59;10.23;;;1.30;;
49962;SDS011;36180;57.678;11.910;2022-09-13T07:39:26;7.88;;;1.35;;
49962;SDS011;36180;57.678;11.910;2022-09-13T07:41:53;9.63;;;1.48;;
49962;SDS011;36180;57.678;11.910;2022-09-13T07:44:20;8.13;;;1.33;;
49962;SDS011;36180;57.678;11.910;2022-09-13T07:46:47;10.60;;;1.55;;
49962;SDS011;36180;57.678;11.910;2022-09-13T07:49:16;10.20;;;1.42;;
49962;SDS011;36180;57.678;11.910;2022-09-13T07:51:43;10.38;;;1.95;;
49962;SDS011;36180;57.678;11.910;2022-09-13T07:54:11;10.02;;;1.65;;
49962;SDS011;36180;57.678;11.910;2022-09-13T07:56:39;12.70;;;1.50;;
49962;SDS011;36180;57.678;11.910;2022-09-13T07:59:10;13.75;;;2.03;;
49962;SDS011;36180;57.678;11.910;2022-09-13T08:01:39;14.10;;;1.63;;
49962;SDS011;36180;57.678;11.910;2022-09-13T08:04:07;8.57;;;2.00;;
49962;SDS011;36180;57.678;11.910;2022-09-13T08:06:37;11.10;;;1.80;;
49962;SDS011;36180;57.678;11.910;2022-09-13T08:09:05;12.43;;;1.95;;
49962;SDS011;36180;57.678;11.910;2022-09-13T08:11:33;10.10;;;1.45;;
49962;SDS011;36180;57.678;11.910;2022-09-13T08:14:01;14.63;;;2.20;;
49962;SDS011;36180;57.678;11.910;2022-09-13T08:16:29;9.40;;;1.40;;
49962;SDS011;36180;57.678;11.910;2022-09-13T08:18:56;9.35;;;1.83;;
49962;SDS011;36180;57.678;11.910;2022-09-13T08:21:24;16.95;;;2.33;;
49962;SDS011;36180;57.678;11.910;2022-09-13T08:23:56;7.90;;;1.77;;
49962;SDS011;36180;57.678;11.910;2022-09-13T08:28:54;7.50;;;1.40;;
49962;SDS011;36180;57.678;11.910;2022-09-13T08:31:22;8.43;;;1.90;;
49962;SDS011;36180;57.678;11.910;2022-09-13T08:33:49;10.98;;;1.23;;
49962;SDS011;36180;57.678;11.910;2022-09-13T08:36:16;12.57;;;1.98;;
49962;SDS011;36180;57.678;11.910;2022-09-13T08:38:44;9.05;;;1.27;;
49962;SDS011;36180;57.678;11.910;2022-09-13T08:41:22;5.53;;;1.23;;
49962;SDS011;36180;57.678;11.910;2022-09-13T08:43:57;8.48;;;1.27;;
49962;SDS011;36180;57.678;11.910;2022-09-13T08:46:27;9.38;;;1.67;;
49962;SDS011;36180;57.678;11.910;2022-09-13T08:48:58;10.30;;;1.30;;
49962;SDS011;36180;57.678;11.910;2022-09-13T08:51:27;8.38;;;1.50;;
49962;SDS011;36180;57.678;11.910;2022-09-13T08:53:58;9.40;;;1.08;;
49962;SDS011;36180;57.678;11.910;2022-09-13T08:56:28;6.28;;;1.05;;
49962;SDS011;36180;57.678;11.910;2022-09-13T08:59:05;9.52;;;1.33;;
49962;SDS011;36180;57.678;11.910;2022-09-13T09:01:44;11.73;;;1.45;;
49962;SDS011;36180;57.678;11.910;2022-09-13T09:04:20;8.10;;;1.20;;
49962;SDS011;36180;57.678;11.910;2022-09-13T09:07:09;8.90;;;1.33;;
49962;SDS011;36180;57.678;11.910;2022-09-13T09:09:39;8.10;;;1.25;;
49962;SDS011;36180;57.678;11.910;2022-09-13T09:12:13;9.50;;;1.45;;
49962;SDS011;36180;57.678;11.910;2022-09-13T09:14:43;7.22;;;1.85;;
49962;SDS011;36180;57.678;11.910;2022-09-13T09:17:12;10.98;;;1.70;;
49962;SDS011;36180;57.678;11.910;2022-09-13T09:19:42;9.20;;;1.60;;
49962;SDS011;36180;57.678;11.910;2022-09-13T09:22:12;10.85;;;1.70;;
49962;SDS011;36180;57.678;11.910;2022-09-13T09:24:43;8.00;;;1.35;;
49962;SDS011;36180;57.678;11.910;2022-09-13T09:27:13;11.38;;;2.28;;
49962;SDS011;36180;57.678;11.910;2022-09-13T09:29:42;8.40;;;1.42;;
49962;SDS011;36180;57.678;11.910;2022-09-13T09:32:14;12.93;;;1.83;;
49962;SDS011;36180;57.678;11.910;2022-09-13T09:34:52;13.30;;;2.20;;
49962;SDS011;36180;57.678;11.910;2022-09-13T09:37:26;8.95;;;2.03;;
49962;SDS011;36180;57.678;11.910;2022-09-13T09:39:57;14.40;;;1.92;;
49962;SDS011;36180;57.678;11.910;2022-09-13T09:42:27;12.70;;;1.95;;
49962;SDS011;36180;57.678;11.910;2022-09-13T09:44:56;17.40;;;2.45;;
49962;SDS011;36180;57.678;11.910;2022-09-13T09:47:25;18.38;;;2.33;;
49962;SDS011;36180;57.678;11.910;2022-09-13T09:49:54;18.10;;;2.30;;
49962;SDS011;36180;57.678;11.910;2022-09-13T09:52:39;17.30;;;1.85;;
49962;SDS011;36180;57.678;11.910;2022-09-13T09:55:12;8.38;;;1.60;;
49962;SDS011;36180;57.678;11.910;2022-09-13T09:57:50;11.23;;;1.58;;
49962;SDS011;36180;57.678;11.910;2022-09-13T10:00:19;14.35;;;1.70;;
49962;SDS011;36180;57.678;11.910;2022-09-13T10:02:47;12.30;;;1.92;;
49962;SDS011;36180;57.678;11.910;2022-09-13T10:05:20;15.32;;;1.90;;
49962;SDS011;36180;57.678;11.910;2022-09-13T10:07:52;19.80;;;1.90;;
49962;SDS011;36180;57.678;11.910;2022-09-13T10:10:23;10.52;;;1.67;;
49962;SDS011;36180;57.678;11.910;2022-09-13T10:12:53;12.15;;;1.30;;
49962;SDS011;36180;57.678;11.910;2022-09-13T10:15:22;12.18;;;1.20;;
49962;SDS011;36180;57.678;11.910;2022-09-13T10:18:00;6.93;;;1.40;;
49962;SDS011;36180;57.678;11.910;2022-09-13T10:20:43;14.50;;;2.67;;
49962;SDS011;36180;57.678;11.910;2022-09-13T10:23:26;8.40;;;1.60;;
49962;SDS011;36180;57.678;11.910;2022-09-13T10:25:57;6.05;;;1.33;;
49962;SDS011;36180;57.678;11.910;2022-09-13T10:28:30;12.38;;;2.30;;
49962;SDS011;36180;57.678;11.910;2022-09-13T10:31:00;13.82;;;2.22;;
49962;SDS011;36180;57.678;11.910;2022-09-13T10:33:31;16.17;;;2.53;;
49962;SDS011;36180;57.678;11.910;2022-09-13T10:36:00;13.30;;;2.15;;
49962;SDS011;36180;57.678;11.910;2022-09-13T10:38:30;14.38;;;1.65;;
49962;SDS011;36180;57.678;11.910;2022-09-13T10:40:59;12.75;;;1.73;;
49962;SDS011;36180;57.678;11.910;2022-09-13T10:43:29;9.60;;;1.73;;
49962;SDS011;36180;57.678;11.910;2022-09-13T10:45:57;10.65;;;1.80;;
49962;SDS011;36180;57.678;11.910;2022-09-13T10:48:27;11.15;;;1.35;;
49962;SDS011;36180;57.678;11.910;2022-09-13T10:51:02;10.70;;;2.08;;
49962;SDS011;36180;57.678;11.910;2022-09-13T10:53:33;9.48;;;1.70;;
49962;SDS011;36180;57.678;11.910;2022-09-13T10:56:02;11.85;;;1.75;;
49962;SDS011;36180;57.678;11.910;2022-09-13T10:58:31;12.38;;;2.00;;
49962;SDS011;36180;57.678;11.910;2022-09-13T11:01:05;13.05;;;2.08;;
49962;SDS011;36180;57.678;11.910;2022-09-13T11:04:18;14.80;;;2.25;;
49962;SDS011;36180;57.678;11.910;2022-09-13T11:07:02;9.80;;;1.80;;
49962;SDS011;36180;57.678;11.910;2022-09-13T11:09:42;12.80;;;2.03;;
49962;SDS011;36180;57.678;11.910;2022-09-13T11:12:14;10.85;;;1.85;;
49962;SDS011;36180;57.678;11.910;2022-09-13T11:14:49;18.65;;;2.70;;
49962;SDS011;36180;57.678;11.910;2022-09-13T11:17:23;11.05;;;1.70;;
49962;SDS011;36180;57.678;11.910;2022-09-13T11:22:57;11.57;;;1.42;;
49962;SDS011;36180;57.678;11.910;2022-09-13T11:25:35;14.07;;;2.00;;
49962;SDS011;36180;57.678;11.910;2022-09-13T11:28:11;8.52;;;1.67;;
49962;SDS011;36180;57.678;11.910;2022-09-13T11:30:47;7.47;;;1.40;;
49962;SDS011;36180;57.678;11.910;2022-09-13T11:33:36;7.97;;;1.00;;
49962;SDS011;36180;57.678;11.910;2022-09-13T11:36:22;7.30;;;1.15;;
49962;SDS011;36180;57.678;11.910;2022-09-13T11:39:10;6.82;;;1.45;;
49962;SDS011;36180;57.678;11.910;2022-09-13T11:41:42;4.82;;;1.00;;
49962;SDS011;36180;57.678;11.910;2022-09-13T11:44:18;2.95;;;1.00;;
49962;SDS011;36180;57.678;11.910;2022-09-13T11:46:58;2.72;;;0.90;;
49962;SDS011;36180;57.678;11.910;2022-09-13T11:49:44;6.35;;;1.23;;
49962;SDS011;36180;57.678;11.910;2022-09-13T11:52:29;6.22;;;1.15;;
49962;SDS011;36180;57.678;11.910;2022-09-13T11:55:02;8.18;;;1.33;;
49962;SDS011;36180;57.678;11.910;2022-09-13T11:57:37;8.75;;;1.38;;
49962;SDS011;36180;57.678;11.910;2022-09-13T12:00:08;8.18;;;1.50;;
49962;SDS011;36180;57.678;11.910;2022-09-13T12:02:45;6.03;;;1.13;;
49962;SDS011;36180;57.678;11.910;2022-09-13T12:05:18;5.93;;;1.15;;
49962;SDS011;36180;57.678;11.910;2022-09-13T12:07:48;6.93;;;1.30;;
49962;SDS011;36180;57.678;11.910;2022-09-13T12:10:18;9.93;;;1.38;;
49962;SDS011;36180;57.678;11.910;2022-09-13T12:15:17;6.65;;;0.95;;
49962;SDS011;36180;57.678;11.910;2022-09-13T12:17:50;7.45;;;1.30;;
49962;SDS011;36180;57.678;11.910;2022-09-13T12:20:19;6.90;;;1.20;;
49962;SDS011;36180;57.678;11.910;2022-09-13T12:22:54;8.93;;;1.13;;
49962;SDS011;36180;57.678;11.910;2022-09-13T12:25:24;10.02;;;1.40;;
49962;SDS011;36180;57.678;11.910;2022-09-13T12:27:58;9.10;;;1.75;;
49962;SDS011;36180;57.678;11.910;2022-09-13T12:30:32;5.03;;;1.17;;
49962;SDS011;36180;57.678;11.910;2022-09-13T12:33:06;6.60;;;1.10;;
49962;SDS011;36180;57.678;11.910;2022-09-13T12:35:34;4.43;;;1.30;;
49962;SDS011;36180;57.678;11.910;2022-09-13T12:38:20;5.50;;;0.90;;
49962;SDS011;36180;57.678;11.910;2022-09-13T12:41:00;5.70;;;1.50;;
49962;SDS011;36180;57.678;11.910;2022-09-13T12:43:34;4.57;;;1.00;;
49962;SDS011;36180;57.678;11.910;2022-09-13T12:46:31;3.05;;;0.70;;
49962;SDS011;36180;57.678;11.910;2022-09-13T12:49:17;4.90;;;0.63;;
49962;SDS011;36180;57.678;11.910;2022-09-13T12:52:01;3.65;;;0.85;;
49962;SDS011;36180;57.678;11.910;2022-09-13T12:57:48;3.88;;;0.60;;
49962;SDS011;36180;57.678;11.910;2022-09-13T13:00:18;3.38;;;0.70;;
49962;SDS011;36180;57.678;11.910;2022-09-13T13:02:49;3.47;;;1.00;;
49962;SDS011;36180;57.678;11.910;2022-09-13T13:05:36;3.45;;;0.93;;
49962;SDS011;36180;57.678;11.910;2022-09-13T13:08:06;4.03;;;0.73;;
49962;SDS011;36180;57.678;11.910;2022-09-13T13:10:42;2.28;;;0.80;;
49962;SDS011;36180;57.678;11.910;2022-09-13T13:13:10;3.47;;;0.80;;
49962;SDS011;36180;57.678;11.910;2022-09-13T13:15:56;3.80;;;0.77;;
49962;SDS011;36180;57.678;11.910;2022-09-13T13:18:29;7.75;;;0.98;;
49962;SDS011;36180;57.678;11.910;2022-09-13T13:27:38;4.72;;;0.93;;
49962;SDS011;36180;57.678;11.910;2022-09-13T13:33:14;5.20;;;0.80;;
49962;SDS011;36180;57.678;11.910;2022-09-13T13:35:43;6.95;;;0.88;;
49962;SDS011;36180;57.678;11.910;2022-09-13T13:38:16;4.22;;;1.00;;
49962;SDS011;36180;57.678;11.910;2022-09-13T13:41:03;4.93;;;0.90;;
49962;SDS011;36180;57.678;11.910;2022-09-13T13:43:33;4.90;;;0.90;;
49962;SDS011;36180;57.678;11.910;2022-09-13T13:46:22;6.90;;;1.13;;
49962;SDS011;36180;57.678;11.910;2022-09-13T13:48:52;7.45;;;1.00;;
49962;SDS011;36180;57.678;11.910;2022-09-13T13:53:57;7.40;;;1.00;;
49962;SDS011;36180;57.678;11.910;2022-09-13T13:56:32;2.85;;;0.65;;
49962;SDS011;36180;57.678;11.910;2022-09-13T13:59:03;3.35;;;1.02;;
49962;SDS011;36180;57.678;11.910;2022-09-13T14:01:35;7.90;;;1.55;;
49962;SDS011;36180;57.678;11.910;2022-09-13T14:04:09;10.18;;;1.58;;
49962;SDS011;36180;57.678;11.910;2022-09-13T14:06:58;11.93;;;1.90;;
49962;SDS011;36180;57.678;11.910;2022-09-13T14:09:33;15.93;;;2.17;;
49962;SDS011;36180;57.678;11.910;2022-09-13T14:12:10;11.43;;;2.20;;
49962;SDS011;36180;57.678;11.910;2022-09-13T14:14:55;8.00;;;1.80;;
49962;SDS011;36180;57.678;11.910;2022-09-13T14:17:42;15.15;;;3.00;;
49962;SDS011;36180;57.678;11.910;2022-09-13T14:20:23;13.00;;;2.40;;
49962;SDS011;36180;57.678;11.910;2022-09-13T14:22:51;19.33;;;3.03;;
49962;SDS011;36180;57.678;11.910;2022-09-13T14:25:38;29.52;;;3.35;;
49962;SDS011;36180;57.678;11.910;2022-09-13T14:28:05;21.75;;;3.53;;
49962;SDS011;36180;57.678;11.910;2022-09-13T14:30:34;23.25;;;2.95;;
49962;SDS011;36180;57.678;11.910;2022-09-13T14:33:02;17.83;;;3.13;;
49962;SDS011;36180;57.678;11.910;2022-09-13T14:35:31;22.63;;;3.65;;
49962;SDS011;36180;57.678;11.910;2022-09-13T14:38:09;15.70;;;3.20;;
49962;SDS011;36180;57.678;11.910;2022-09-13T14:40:38;13.68;;;2.83;;
49962;SDS011;36180;57.678;11.910;2022-09-13T14:43:13;17.08;;;2.97;;
49962;SDS011;36180;57.678;11.910;2022-09-13T14:45:41;17.40;;;2.78;;
49962;SDS011;36180;57.678;11.910;2022-09-13T14:48:11;14.43;;;2.60;;
49962;SDS011;36180;57.678;11.910;2022-09-13T14:50:45;17.15;;;2.70;;
49962;SDS011;36180;57.678;11.910;2022-09-13T14:53:15;14.93;;;2.70;;
49962;SDS011;36180;57.678;11.910;2022-09-13T14:55:48;24.90;;;3.37;;
49962;SDS011;36180;57.678;11.910;2022-09-13T14:58:17;15.95;;;2.92;;
49962;SDS011;36180;57.678;11.910;2022-09-13T15:00:47;18.67;;;3.15;;
49962;SDS011;36180;57.678;11.910;2022-09-13T15:03:15;21.63;;;3.65;;
49962;SDS011;36180;57.678;11.910;2022-09-13T15:05:49;18.15;;;3.53;;
49962;SDS011;36180;57.678;11.910;2022-09-13T15:08:32;18.98;;;3.42;;
49962;SDS011;36180;57.678;11.910;2022-09-13T15:11:13;22.63;;;4.25;;
49962;SDS011;36180;57.678;11.910;2022-09-13T15:13:42;23.50;;;3.83;;
49962;SDS011;36180;57.678;11.910;2022-09-13T15:16:24;21.83;;;4.32;;
49962;SDS011;36180;57.678;11.910;2022-09-13T15:21:41;20.42;;;3.85;;